sensor_id;sensor_type;location;lat;lon;timestamp;P1;durP1;ratioP1;P2;durP2;ratioP2
6185;SDS011;3126;52.738;8.316;2023-12-20T00:04:31;6.75;;;2.45;;
6185;SDS011;3126;52.738;8.316;2023-12-20T00:09:32;8.85;;;2.25;;
6185;SDS011;3126;52.738;8.316;2023-12-20T00:14:33;4.93;;;1.65;;
6185;SDS011;3126;52.738;8.316;2023-12-20T00:19:34;3.45;;;1.50;;
6185;SDS011;3126;52.738;8.316;2023-12-20T00:24:35;8.80;;;2.30;;
6185;SDS011;3126;52.738;8.316;2023-12-20T00:29:36;8.05;;;3.03;;
6185;SDS011;3126;52.738;8.316;2023-12-20T00:34:37;6.60;;;2.38;;
6185;SDS011;3126;52.738;8.316;2023-12-20T00:39:38;7.30;;;2.20;;
6185;SDS011;3126;52.738;8.316;2023-12-20T00:44:39;7.57;;;2.22;;
6185;SDS011;3126;52.738;8.316;2023-12-20T00:49:40;6.60;;;2.08;;
6185;SDS011;3126;52.738;8.316;2023-12-20T00:54:41;6.32;;;1.92;;
6185;SDS011;3126;52.738;8.316;2023-12-20T00:59:42;8.63;;;1.83;;
6185;SDS011;3126;52.738;8.316;2023-12-20T01:04:43;12.45;;;2.22;;
6185;SDS011;3126;52.738;8.316;2023-12-20T01:09:44;7.28;;;1.77;;
6185;SDS011;3126;52.738;8.316;2023-12-20T01:14:45;7.93;;;1.67;;
6185;SDS011;3126;52.738;8.316;2023-12-20T01:19:46;3.83;;;2.20;;
6185;SDS011;3126;52.738;8.316;2023-12-20T01:24:47;8.38;;;1.73;;
6185;SDS011;3126;52.738;8.316;2023-12-20T01:29:48;10.88;;;2.15;;
6185;SDS011;3126;52.738;8.316;2023-12-20T01:34:49;4.78;;;1.73;;
6185;SDS011;3126;52.738;8.316;2023-12-20T01:39:50;6.68;;;1.58;;
6185;SDS011;3126;52.738;8.316;2023-12-20T01:44:51;9.27;;;2.50;;
6185;SDS011;3126;52.738;8.316;2023-12-20T01:49:52;7.78;;;1.85;;
6185;SDS011;3126;52.738;8.316;2023-12-20T01:54:53;8.73;;;1.95;;
6185;SDS011;3126;52.738;8.316;2023-12-20T02:00:00;6.30;;;1.27;;
6185;SDS011;3126;52.738;8.316;2023-12-20T02:05:03;7.10;;;2.10;;
6185;SDS011;3126;52.738;8.316;2023-12-20T02:10:04;8.05;;;1.70;;
6185;SDS011;3126;52.738;8.316;2023-12-20T02:15:05;3.50;;;1.13;;
6185;SDS011;3126;52.738;8.316;2023-12-20T02:20:07;9.00;;;1.77;;
6185;SDS011;3126;52.738;8.316;2023-12-20T02:25:08;5.93;;;1.35;;
6185;SDS011;3126;52.738;8.316;2023-12-20T02:30:09;6.60;;;1.95;;
6185;SDS011;3126;52.738;8.316;2023-12-20T02:35:11;8.85;;;2.13;;
6185;SDS011;3126;52.738;8.316;2023-12-20T02:40:12;4.68;;;1.45;;
6185;SDS011;3126;52.738;8.316;2023-12-20T02:45:13;2.70;;;1.85;;
6185;SDS011;3126;52.738;8.316;2023-12-20T02:50:14;6.55;;;2.20;;
6185;SDS011;3126;52.738;8.316;2023-12-20T02:55:15;9.80;;;2.60;;
6185;SDS011;3126;52.738;8.316;2023-12-20T03:00:31;9.98;;;2.47;;
6185;SDS011;3126;52.738;8.316;2023-12-20T03:05:32;9.93;;;2.65;;
6185;SDS011;3126;52.738;8.316;2023-12-20T03:10:33;6.63;;;1.90;;
6185;SDS011;3126;52.738;8.316;2023-12-20T03:15:34;13.82;;;2.95;;
6185;SDS011;3126;52.738;8.316;2023-12-20T03:20:36;10.52;;;2.28;;
6185;SDS011;3126;52.738;8.316;2023-12-20T03:25:36;8.65;;;2.53;;
6185;SDS011;3126;52.738;8.316;2023-12-20T03:30:37;11.80;;;2.78;;
6185;SDS011;3126;52.738;8.316;2023-12-20T03:35:38;7.97;;;2.63;;
6185;SDS011;3126;52.738;8.316;2023-12-20T03:40:40;7.20;;;2.35;;
6185;SDS011;3126;52.738;8.316;2023-12-20T03:45:41;9.23;;;3.20;;
6185;SDS011;3126;52.738;8.316;2023-12-20T03:50:42;10.82;;;3.30;;
6185;SDS011;3126;52.738;8.316;2023-12-20T03:55:43;13.95;;;2.88;;
6185;SDS011;3126;52.738;8.316;2023-12-20T04:00:44;8.77;;;2.05;;
6185;SDS011;3126;52.738;8.316;2023-12-20T04:05:45;9.00;;;1.95;;
6185;SDS011;3126;52.738;8.316;2023-12-20T04:10:46;15.60;;;3.30;;
6185;SDS011;3126;52.738;8.316;2023-12-20T04:15:47;8.55;;;2.40;;
6185;SDS011;3126;52.738;8.316;2023-12-20T04:20:50;12.40;;;3.25;;
6185;SDS011;3126;52.738;8.316;2023-12-20T04:25:51;11.77;;;3.42;;
6185;SDS011;3126;52.738;8.316;2023-12-20T04:30:52;9.57;;;2.67;;
6185;SDS011;3126;52.738;8.316;2023-12-20T04:35:53;9.27;;;2.05;;
6185;SDS011;3126;52.738;8.316;2023-12-20T04:40:54;11.13;;;2.65;;
6185;SDS011;3126;52.738;8.316;2023-12-20T04:45:55;12.63;;;2.92;;
6185;SDS011;3126;52.738;8.316;2023-12-20T04:50:56;8.65;;;3.15;;
6185;SDS011;3126;52.738;8.316;2023-12-20T04:55:57;6.78;;;2.83;;
6185;SDS011;3126;52.738;8.316;2023-12-20T05:00:58;12.30;;;3.63;;
6185;SDS011;3126;52.738;8.316;2023-12-20T05:05:59;10.43;;;3.75;;
6185;SDS011;3126;52.738;8.316;2023-12-20T05:11:00;14.68;;;3.78;;
6185;SDS011;3126;52.738;8.316;2023-12-20T05:16:02;11.25;;;3.60;;
6185;SDS011;3126;52.738;8.316;2023-12-20T05:21:03;15.68;;;4.80;;
6185;SDS011;3126;52.738;8.316;2023-12-20T05:26:04;10.45;;;4.15;;
6185;SDS011;3126;52.738;8.316;2023-12-20T05:31:05;14.73;;;4.70;;
6185;SDS011;3126;52.738;8.316;2023-12-20T05:36:07;11.48;;;3.60;;
6185;SDS011;3126;52.738;8.316;2023-12-20T05:41:11;10.27;;;4.07;;
6185;SDS011;3126;52.738;8.316;2023-12-20T05:46:12;7.70;;;3.60;;
6185;SDS011;3126;52.738;8.316;2023-12-20T05:51:13;19.55;;;3.50;;
6185;SDS011;3126;52.738;8.316;2023-12-20T05:56:14;12.57;;;3.47;;
6185;SDS011;3126;52.738;8.316;2023-12-20T06:01:15;8.30;;;2.55;;
6185;SDS011;3126;52.738;8.316;2023-12-20T06:06:18;16.60;;;3.95;;
6185;SDS011;3126;52.738;8.316;2023-12-20T06:11:19;21.92;;;4.60;;
6185;SDS011;3126;52.738;8.316;2023-12-20T06:16:20;16.23;;;4.15;;
6185;SDS011;3126;52.738;8.316;2023-12-20T06:21:21;12.70;;;3.70;;
6185;SDS011;3126;52.738;8.316;2023-12-20T06:26:22;16.75;;;3.55;;
6185;SDS011;3126;52.738;8.316;2023-12-20T06:31:23;15.70;;;3.10;;
6185;SDS011;3126;52.738;8.316;2023-12-20T06:36:24;13.80;;;3.47;;
6185;SDS011;3126;52.738;8.316;2023-12-20T06:41:25;14.25;;;3.53;;
6185;SDS011;3126;52.738;8.316;2023-12-20T06:46:26;14.20;;;3.15;;
6185;SDS011;3126;52.738;8.316;2023-12-20T06:51:27;17.55;;;3.67;;
6185;SDS011;3126;52.738;8.316;2023-12-20T06:56:28;15.82;;;4.15;;
6185;SDS011;3126;52.738;8.316;2023-12-20T07:01:29;16.75;;;3.95;;
6185;SDS011;3126;52.738;8.316;2023-12-20T07:06:30;11.60;;;3.03;;
6185;SDS011;3126;52.738;8.316;2023-12-20T07:11:31;8.65;;;2.80;;
6185;SDS011;3126;52.738;8.316;2023-12-20T07:16:32;19.85;;;3.85;;
6185;SDS011;3126;52.738;8.316;2023-12-20T07:21:33;10.02;;;3.60;;
6185;SDS011;3126;52.738;8.316;2023-12-20T07:26:34;10.82;;;3.53;;
6185;SDS011;3126;52.738;8.316;2023-12-20T07:31:37;8.65;;;3.53;;
6185;SDS011;3126;52.738;8.316;2023-12-20T07:36:38;15.60;;;3.78;;
6185;SDS011;3126;52.738;8.316;2023-12-20T07:41:39;6.10;;;2.85;;
6185;SDS011;3126;52.738;8.316;2023-12-20T07:46:40;16.38;;;3.72;;
6185;SDS011;3126;52.738;8.316;2023-12-20T07:51:41;11.55;;;3.50;;
6185;SDS011;3126;52.738;8.316;2023-12-20T07:56:42;14.02;;;3.65;;
6185;SDS011;3126;52.738;8.316;2023-12-20T08:01:43;19.80;;;4.35;;
6185;SDS011;3126;52.738;8.316;2023-12-20T08:06:45;11.93;;;3.47;;
6185;SDS011;3126;52.738;8.316;2023-12-20T08:11:46;10.40;;;3.00;;
6185;SDS011;3126;52.738;8.316;2023-12-20T08:16:47;8.68;;;2.17;;
6185;SDS011;3126;52.738;8.316;2023-12-20T08:21:48;17.33;;;3.20;;
6185;SDS011;3126;52.738;8.316;2023-12-20T08:26:49;12.68;;;3.60;;
6185;SDS011;3126;52.738;8.316;2023-12-20T08:31:53;10.32;;;3.03;;
6185;SDS011;3126;52.738;8.316;2023-12-20T08:36:54;13.45;;;3.10;;
6185;SDS011;3126;52.738;8.316;2023-12-20T08:41:55;13.07;;;2.63;;
6185;SDS011;3126;52.738;8.316;2023-12-20T08:46:56;13.63;;;3.40;;
6185;SDS011;3126;52.738;8.316;2023-12-20T08:51:57;15.77;;;4.30;;
6185;SDS011;3126;52.738;8.316;2023-12-20T08:56:58;8.75;;;3.15;;
6185;SDS011;3126;52.738;8.316;2023-12-20T09:01:59;14.15;;;3.38;;
6185;SDS011;3126;52.738;8.316;2023-12-20T09:07:00;11.07;;;3.00;;
6185;SDS011;3126;52.738;8.316;2023-12-20T09:12:01;12.35;;;3.08;;
6185;SDS011;3126;52.738;8.316;2023-12-20T09:17:02;7.38;;;2.88;;
6185;SDS011;3126;52.738;8.316;2023-12-20T09:22:03;11.43;;;3.80;;
6185;SDS011;3126;52.738;8.316;2023-12-20T09:27:05;6.53;;;2.80;;
6185;SDS011;3126;52.738;8.316;2023-12-20T09:32:06;12.80;;;3.25;;
6185;SDS011;3126;52.738;8.316;2023-12-20T09:37:07;10.57;;;3.15;;
6185;SDS011;3126;52.738;8.316;2023-12-20T09:42:08;8.68;;;2.75;;
6185;SDS011;3126;52.738;8.316;2023-12-20T09:47:12;15.52;;;3.55;;
6185;SDS011;3126;52.738;8.316;2023-12-20T09:52:13;12.30;;;3.15;;
6185;SDS011;3126;52.738;8.316;2023-12-20T09:57:14;12.43;;;2.67;;
6185;SDS011;3126;52.738;8.316;2023-12-20T10:02:15;14.07;;;3.13;;
6185;SDS011;3126;52.738;8.316;2023-12-20T10:07:19;8.13;;;2.65;;
6185;SDS011;3126;52.738;8.316;2023-12-20T10:12:20;9.02;;;2.75;;
6185;SDS011;3126;52.738;8.316;2023-12-20T10:17:21;10.93;;;4.32;;
6185;SDS011;3126;52.738;8.316;2023-12-20T10:22:23;6.85;;;2.75;;
6185;SDS011;3126;52.738;8.316;2023-12-20T10:27:24;1.77;;;1.02;;
6185;SDS011;3126;52.738;8.316;2023-12-20T10:32:26;2.58;;;0.70;;
6185;SDS011;3126;52.738;8.316;2023-12-20T10:37:27;1.92;;;0.60;;
6185;SDS011;3126;52.738;8.316;2023-12-20T10:42:28;2.85;;;0.80;;
6185;SDS011;3126;52.738;8.316;2023-12-20T10:47:30;2.50;;;0.70;;
6185;SDS011;3126;52.738;8.316;2023-12-20T10:52:32;3.05;;;0.90;;
6185;SDS011;3126;52.738;8.316;2023-12-20T10:57:33;4.03;;;0.80;;
6185;SDS011;3126;52.738;8.316;2023-12-20T11:02:39;5.45;;;1.10;;
6185;SDS011;3126;52.738;8.316;2023-12-20T11:07:42;3.03;;;1.48;;
6185;SDS011;3126;52.738;8.316;2023-12-20T11:12:48;2.30;;;0.93;;
6185;SDS011;3126;52.738;8.316;2023-12-20T11:17:57;3.40;;;0.93;;
6185;SDS011;3126;52.738;8.316;2023-12-20T11:22:58;2.10;;;0.65;;
6185;SDS011;3126;52.738;8.316;2023-12-20T11:28:09;2.33;;;0.82;;
6185;SDS011;3126;52.738;8.316;2023-12-20T11:33:11;2.40;;;0.60;;
6185;SDS011;3126;52.738;8.316;2023-12-20T11:38:13;3.20;;;0.80;;
6185;SDS011;3126;52.738;8.316;2023-12-20T11:43:29;2.28;;;1.42;;
6185;SDS011;3126;52.738;8.316;2023-12-20T11:48:31;2.17;;;1.15;;
6185;SDS011;3126;52.738;8.316;2023-12-20T11:53:32;2.97;;;1.08;;
6185;SDS011;3126;52.738;8.316;2023-12-20T11:58:33;3.38;;;1.10;;
6185;SDS011;3126;52.738;8.316;2023-12-20T12:03:35;2.92;;;1.05;;
6185;SDS011;3126;52.738;8.316;2023-12-20T12:08:37;5.10;;;0.90;;
6185;SDS011;3126;52.738;8.316;2023-12-20T12:13:38;2.97;;;1.58;;
6185;SDS011;3126;52.738;8.316;2023-12-20T12:18:39;4.55;;;1.08;;
6185;SDS011;3126;52.738;8.316;2023-12-20T12:23:41;3.45;;;1.45;;
6185;SDS011;3126;52.738;8.316;2023-12-20T12:28:42;2.15;;;0.90;;
6185;SDS011;3126;52.738;8.316;2023-12-20T12:33:43;7.75;;;1.33;;
6185;SDS011;3126;52.738;8.316;2023-12-20T12:38:44;5.10;;;1.67;;
6185;SDS011;3126;52.738;8.316;2023-12-20T12:43:45;4.35;;;1.30;;
6185;SDS011;3126;52.738;8.316;2023-12-20T12:48:47;6.97;;;1.65;;
6185;SDS011;3126;52.738;8.316;2023-12-20T12:53:49;3.72;;;1.13;;
6185;SDS011;3126;52.738;8.316;2023-12-20T12:58:50;7.85;;;1.33;;
6185;SDS011;3126;52.738;8.316;2023-12-20T13:03:51;3.95;;;0.98;;
6185;SDS011;3126;52.738;8.316;2023-12-20T13:08:52;7.22;;;1.67;;
6185;SDS011;3126;52.738;8.316;2023-12-20T13:13:53;4.70;;;1.20;;
6185;SDS011;3126;52.738;8.316;2023-12-20T13:18:54;4.72;;;1.40;;
6185;SDS011;3126;52.738;8.316;2023-12-20T13:23:54;5.38;;;1.52;;
6185;SDS011;3126;52.738;8.316;2023-12-20T13:28:55;5.65;;;1.35;;
6185;SDS011;3126;52.738;8.316;2023-12-20T13:33:56;4.47;;;1.30;;
6185;SDS011;3126;52.738;8.316;2023-12-20T13:38:57;5.68;;;1.45;;
6185;SDS011;3126;52.738;8.316;2023-12-20T13:43:58;5.88;;;1.13;;
6185;SDS011;3126;52.738;8.316;2023-12-20T13:49:01;4.03;;;1.67;;
6185;SDS011;3126;52.738;8.316;2023-12-20T13:54:02;7.40;;;2.13;;
6185;SDS011;3126;52.738;8.316;2023-12-20T13:59:03;8.18;;;1.77;;
6185;SDS011;3126;52.738;8.316;2023-12-20T14:04:04;10.73;;;2.33;;
6185;SDS011;3126;52.738;8.316;2023-12-20T14:09:06;5.00;;;1.58;;
6185;SDS011;3126;52.738;8.316;2023-12-20T14:14:08;7.30;;;1.40;;
6185;SDS011;3126;52.738;8.316;2023-12-20T14:19:09;5.63;;;1.75;;
6185;SDS011;3126;52.738;8.316;2023-12-20T14:24:10;3.88;;;1.92;;
6185;SDS011;3126;52.738;8.316;2023-12-20T14:29:11;8.35;;;2.15;;
6185;SDS011;3126;52.738;8.316;2023-12-20T14:34:12;5.88;;;1.67;;
6185;SDS011;3126;52.738;8.316;2023-12-20T14:39:13;11.05;;;2.50;;
6185;SDS011;3126;52.738;8.316;2023-12-20T14:44:14;6.78;;;2.00;;
6185;SDS011;3126;52.738;8.316;2023-12-20T14:49:16;7.32;;;1.80;;
6185;SDS011;3126;52.738;8.316;2023-12-20T14:54:17;7.72;;;1.83;;
6185;SDS011;3126;52.738;8.316;2023-12-20T14:59:20;11.98;;;1.90;;
6185;SDS011;3126;52.738;8.316;2023-12-20T15:04:22;6.50;;;1.73;;
6185;SDS011;3126;52.738;8.316;2023-12-20T15:09:28;7.43;;;1.60;;
6185;SDS011;3126;52.738;8.316;2023-12-20T15:14:29;7.88;;;1.50;;
6185;SDS011;3126;52.738;8.316;2023-12-20T15:19:31;5.65;;;1.65;;
6185;SDS011;3126;52.738;8.316;2023-12-20T15:24:31;4.55;;;1.27;;
6185;SDS011;3126;52.738;8.316;2023-12-20T15:29:38;4.82;;;1.00;;
6185;SDS011;3126;52.738;8.316;2023-12-20T15:34:39;5.65;;;1.05;;
6185;SDS011;3126;52.738;8.316;2023-12-20T15:39:43;4.20;;;2.28;;
6185;SDS011;3126;52.738;8.316;2023-12-20T15:49:45;7.22;;;2.20;;
6185;SDS011;3126;52.738;8.316;2023-12-20T15:54:47;10.45;;;3.03;;
6185;SDS011;3126;52.738;8.316;2023-12-20T15:59:48;4.85;;;1.70;;
6185;SDS011;3126;52.738;8.316;2023-12-20T16:04:50;9.02;;;1.98;;
6185;SDS011;3126;52.738;8.316;2023-12-20T16:09:51;4.47;;;2.00;;
6185;SDS011;3126;52.738;8.316;2023-12-20T16:14:52;5.05;;;1.52;;
6185;SDS011;3126;52.738;8.316;2023-12-20T16:19:53;7.90;;;2.85;;
6185;SDS011;3126;52.738;8.316;2023-12-20T16:24:54;9.20;;;2.05;;
6185;SDS011;3126;52.738;8.316;2023-12-20T16:29:55;3.75;;;2.00;;
6185;SDS011;3126;52.738;8.316;2023-12-20T16:34:56;8.02;;;3.53;;
6185;SDS011;3126;52.738;8.316;2023-12-20T16:39:58;8.55;;;2.75;;
6185;SDS011;3126;52.738;8.316;2023-12-20T16:44:59;6.78;;;2.67;;
6185;SDS011;3126;52.738;8.316;2023-12-20T16:50:00;7.53;;;2.63;;
6185;SDS011;3126;52.738;8.316;2023-12-20T16:55:08;9.63;;;3.60;;
6185;SDS011;3126;52.738;8.316;2023-12-20T17:00:09;7.43;;;3.38;;
6185;SDS011;3126;52.738;8.316;2023-12-20T17:05:10;8.23;;;3.75;;
6185;SDS011;3126;52.738;8.316;2023-12-20T17:10:11;8.10;;;3.03;;
6185;SDS011;3126;52.738;8.316;2023-12-20T17:15:12;6.18;;;3.35;;
6185;SDS011;3126;52.738;8.316;2023-12-20T17:20:13;5.10;;;3.47;;
6185;SDS011;3126;52.738;8.316;2023-12-20T17:25:14;12.18;;;5.32;;
6185;SDS011;3126;52.738;8.316;2023-12-20T17:30:16;6.65;;;3.50;;
6185;SDS011;3126;52.738;8.316;2023-12-20T17:35:17;7.15;;;2.63;;
6185;SDS011;3126;52.738;8.316;2023-12-20T17:40:20;8.98;;;2.33;;
6185;SDS011;3126;52.738;8.316;2023-12-20T17:45:21;9.00;;;3.15;;
6185;SDS011;3126;52.738;8.316;2023-12-20T17:50:22;6.07;;;2.65;;
6185;SDS011;3126;52.738;8.316;2023-12-20T17:55:23;9.05;;;3.42;;
6185;SDS011;3126;52.738;8.316;2023-12-20T18:00:24;10.20;;;3.58;;
6185;SDS011;3126;52.738;8.316;2023-12-20T18:05:27;7.65;;;2.90;;
6185;SDS011;3126;52.738;8.316;2023-12-20T18:10:28;4.90;;;2.92;;
6185;SDS011;3126;52.738;8.316;2023-12-20T18:15:29;11.35;;;4.00;;
6185;SDS011;3126;52.738;8.316;2023-12-20T18:20:30;9.38;;;4.22;;
6185;SDS011;3126;52.738;8.316;2023-12-20T18:25:31;10.15;;;4.65;;
6185;SDS011;3126;52.738;8.316;2023-12-20T18:30:32;11.35;;;4.63;;
6185;SDS011;3126;52.738;8.316;2023-12-20T18:35:33;9.00;;;4.10;;
6185;SDS011;3126;52.738;8.316;2023-12-20T18:40:36;12.82;;;5.15;;
6185;SDS011;3126;52.738;8.316;2023-12-20T18:45:37;13.10;;;5.22;;
6185;SDS011;3126;52.738;8.316;2023-12-20T18:50:38;12.32;;;5.60;;
6185;SDS011;3126;52.738;8.316;2023-12-20T18:55:39;12.90;;;4.90;;
6185;SDS011;3126;52.738;8.316;2023-12-20T19:00:40;18.55;;;5.22;;
6185;SDS011;3126;52.738;8.316;2023-12-20T19:05:41;14.88;;;5.35;;
6185;SDS011;3126;52.738;8.316;2023-12-20T19:10:42;12.20;;;5.10;;
6185;SDS011;3126;52.738;8.316;2023-12-20T19:15:43;13.90;;;5.07;;
6185;SDS011;3126;52.738;8.316;2023-12-20T19:20:44;12.50;;;5.00;;
6185;SDS011;3126;52.738;8.316;2023-12-20T19:25:45;9.90;;;4.55;;
6185;SDS011;3126;52.738;8.316;2023-12-20T19:30:46;13.88;;;5.57;;
6185;SDS011;3126;52.738;8.316;2023-12-20T19:35:47;12.77;;;5.90;;
6185;SDS011;3126;52.738;8.316;2023-12-20T19:40:48;14.15;;;6.40;;
6185;SDS011;3126;52.738;8.316;2023-12-20T19:45:49;14.18;;;6.20;;
6185;SDS011;3126;52.738;8.316;2023-12-20T19:50:50;17.15;;;7.03;;
6185;SDS011;3126;52.738;8.316;2023-12-20T19:55:52;14.20;;;6.90;;
6185;SDS011;3126;52.738;8.316;2023-12-20T20:00:53;17.13;;;7.72;;
6185;SDS011;3126;52.738;8.316;2023-12-20T20:05:53;13.05;;;6.35;;
6185;SDS011;3126;52.738;8.316;2023-12-20T20:10:54;18.20;;;8.10;;
6185;SDS011;3126;52.738;8.316;2023-12-20T20:15:55;11.90;;;6.07;;
6185;SDS011;3126;52.738;8.316;2023-12-20T20:20:56;14.80;;;6.43;;
6185;SDS011;3126;52.738;8.316;2023-12-20T20:25:57;15.10;;;7.13;;
6185;SDS011;3126;52.738;8.316;2023-12-20T20:30:58;13.63;;;7.63;;
6185;SDS011;3126;52.738;8.316;2023-12-20T20:35:59;10.13;;;6.40;;
6185;SDS011;3126;52.738;8.316;2023-12-20T20:41:00;14.30;;;5.72;;
6185;SDS011;3126;52.738;8.316;2023-12-20T20:46:01;14.00;;;5.80;;
6185;SDS011;3126;52.738;8.316;2023-12-20T20:51:02;6.15;;;4.10;;
6185;SDS011;3126;52.738;8.316;2023-12-20T20:56:03;6.28;;;4.93;;
6185;SDS011;3126;52.738;8.316;2023-12-20T21:01:04;7.28;;;4.50;;
6185;SDS011;3126;52.738;8.316;2023-12-20T21:06:06;5.68;;;4.47;;
6185;SDS011;3126;52.738;8.316;2023-12-20T21:11:07;5.13;;;4.22;;
6185;SDS011;3126;52.738;8.316;2023-12-20T21:16:08;4.43;;;3.55;;
6185;SDS011;3126;52.738;8.316;2023-12-20T21:21:11;4.38;;;3.53;;
6185;SDS011;3126;52.738;8.316;2023-12-20T21:26:12;4.10;;;3.67;;
6185;SDS011;3126;52.738;8.316;2023-12-20T21:31:13;3.53;;;2.20;;
6185;SDS011;3126;52.738;8.316;2023-12-20T21:36:14;3.15;;;2.45;;
6185;SDS011;3126;52.738;8.316;2023-12-20T21:41:16;2.22;;;2.10;;
6185;SDS011;3126;52.738;8.316;2023-12-20T21:46:17;3.25;;;2.55;;
6185;SDS011;3126;52.738;8.316;2023-12-20T21:51:18;2.00;;;1.88;;
6185;SDS011;3126;52.738;8.316;2023-12-20T21:56:20;2.53;;;2.33;;
6185;SDS011;3126;52.738;8.316;2023-12-20T22:01:21;3.05;;;2.78;;
6185;SDS011;3126;52.738;8.316;2023-12-20T22:06:22;3.17;;;2.55;;
6185;SDS011;3126;52.738;8.316;2023-12-20T22:11:23;2.08;;;1.98;;
6185;SDS011;3126;52.738;8.316;2023-12-20T22:16:24;2.50;;;2.30;;
6185;SDS011;3126;52.738;8.316;2023-12-20T22:21:25;2.42;;;2.22;;
6185;SDS011;3126;52.738;8.316;2023-12-20T22:26:26;3.15;;;2.47;;
6185;SDS011;3126;52.738;8.316;2023-12-20T22:31:27;2.63;;;2.22;;
6185;SDS011;3126;52.738;8.316;2023-12-20T22:36:28;2.35;;;2.15;;
6185;SDS011;3126;52.738;8.316;2023-12-20T22:41:29;2.58;;;2.38;;
6185;SDS011;3126;52.738;8.316;2023-12-20T22:46:30;1.67;;;1.50;;
6185;SDS011;3126;52.738;8.316;2023-12-20T22:51:32;0.98;;;0.93;;
6185;SDS011;3126;52.738;8.316;2023-12-20T22:56:34;1.40;;;1.25;;
6185;SDS011;3126;52.738;8.316;2023-12-20T23:01:35;1.80;;;1.70;;
6185;SDS011;3126;52.738;8.316;2023-12-20T23:06:35;2.03;;;1.92;;
6185;SDS011;3126;52.738;8.316;2023-12-20T23:11:36;2.40;;;1.60;;
6185;SDS011;3126;52.738;8.316;2023-12-20T23:16:38;1.63;;;1.48;;
6185;SDS011;3126;52.738;8.316;2023-12-20T23:21:39;1.92;;;1.65;;
6185;SDS011;3126;52.738;8.316;2023-12-20T23:26:40;2.20;;;2.03;;
6185;SDS011;3126;52.738;8.316;2023-12-20T23:31:42;1.70;;;1.60;;
6185;SDS011;3126;52.738;8.316;2023-12-20T23:36:43;1.50;;;1.40;;
6185;SDS011;3126;52.738;8.316;2023-12-20T23:41:44;1.45;;;1.35;;
6185;SDS011;3126;52.738;8.316;2023-12-20T23:46:45;1.60;;;1.50;;
6185;SDS011;3126;52.738;8.316;2023-12-20T23:51:46;2.42;;;1.95;;
6185;SDS011;3126;52.738;8.316;2023-12-20T23:56:47;2.72;;;1.50;;
